Time;durP1;ratioP1;P1;durP2;ratioP2;P2;SDS_P1;SDS_P2;PMS_P1;PMS_P2;Temp;Humidity;BMP_temperature;BMP_pressure;BME280_temperature;BME280_humidity;BME280_pressure;Samples;Min_cycle;Max_cycle;Signal;HPM_P1;HPM_P2
2021/12/18 00:02:21;;;;;;;5.50;3.25;;;7.90;99.90;;;;;;5076980;22;20501;-69
2021/12/18 00:04:47;;;;;;;6.07;2.63;;;8.00;99.90;;;;;;5036082;28;20025;-70
2021/12/18 00:07:13;;;;;;;6.57;2.75;;;8.00;99.90;;;;;;5035691;28;20021;-70
2021/12/18 00:09:40;;;;;;;3.95;2.22;;;8.00;99.90;;;;;;5035863;28;20026;-69
2021/12/18 00:12:06;;;;;;;7.10;2.17;;;7.90;99.90;;;;;;5036156;28;20033;-69
2021/12/18 00:14:32;;;;;;;6.47;2.15;;;7.90;99.90;;;;;;5034767;28;20033;-69
2021/12/18 00:16:57;;;;;;;3.75;1.95;;;7.90;99.90;;;;;;5035653;28;20034;-69
2021/12/18 00:19:26;;;;;;;5.43;2.40;;;7.90;99.90;;;;;;5035699;28;20029;-69
2021/12/18 00:21:53;;;;;;;4.25;2.20;;;7.80;99.90;;;;;;5035866;28;20026;-69
2021/12/18 00:24:19;;;;;;;6.40;2.17;;;7.90;99.90;;;;;;5035869;28;20018;-69
2021/12/18 00:26:45;;;;;;;6.65;2.42;;;7.90;99.90;;;;;;5035794;28;20040;-71
2021/12/18 00:29:10;;;;;;;4.57;2.05;;;7.80;99.90;;;;;;5036012;28;20072;-70
2021/12/18 00:31:36;;;;;;;4.55;2.58;;;7.80;99.90;;;;;;5038044;28;20025;-70
2021/12/18 00:34:02;;;;;;;3.80;2.30;;;7.90;99.90;;;;;;5036822;28;20022;-69
2021/12/18 00:36:27;;;;;;;4.00;2.53;;;7.90;99.90;;;;;;5036993;28;20083;-70
2021/12/18 00:38:53;;;;;;;4.45;2.10;;;7.90;99.90;;;;;;5038539;28;20486;-70
2021/12/18 00:44:02;;;;;;;4.07;1.90;;;7.90;99.90;;;;;;5038494;28;20025;-70
2021/12/18 00:46:31;;;;;;;5.68;2.25;;;7.90;99.90;;;;;;5040513;28;20045;-70
2021/12/18 00:48:56;;;;;;;7.40;2.42;;;7.90;99.90;;;;;;5035853;28;20064;-69
2021/12/18 00:51:23;;;;;;;4.95;2.28;;;7.90;99.90;;;;;;5035676;28;20025;-69
2021/12/18 00:53:49;;;;;;;5.20;2.45;;;7.90;99.90;;;;;;5038199;28;20052;-69
2021/12/18 00:56:15;;;;;;;5.30;2.65;;;7.90;99.90;;;;;;5039967;28;20112;-68
2021/12/18 00:58:41;;;;;;;6.68;2.88;;;7.80;99.90;;;;;;5039743;28;20103;-69
2021/12/18 01:01:09;;;;;;;7.40;3.03;;;7.80;99.90;;;;;;5039871;28;20483;-69
2021/12/18 01:03:36;;;;;;;8.27;4.28;;;7.80;99.90;;;;;;5039072;28;20030;-69
2021/12/18 01:06:03;;;;;;;10.82;3.83;;;7.80;99.90;;;;;;5039350;28;20332;-68
2021/12/18 01:08:28;;;;;;;7.15;3.60;;;7.80;99.90;;;;;;5039593;28;20025;-69
2021/12/18 01:11:26;;;;;;;7.00;3.63;;;7.80;99.90;;;;;;5038470;28;20109;-71
2021/12/18 01:16:21;;;;;;;6.80;2.47;;;7.80;99.90;;;;;;5039057;28;20029;-69
2021/12/18 01:24:15;;;;;;;7.10;3.10;;;7.70;99.90;;;;;;5038938;28;20036;-72
2021/12/18 01:26:41;;;;;;;5.82;2.25;;;7.70;99.90;;;;;;5039123;28;20025;-69
2021/12/18 01:29:06;;;;;;;4.63;2.70;;;7.80;99.90;;;;;;5038229;28;20442;-69
2021/12/18 01:31:32;;;;;;;5.47;3.08;;;7.80;99.90;;;;;;5043581;28;20451;-70
2021/12/18 01:33:59;;;;;;;4.70;2.70;;;7.80;99.90;;;;;;5045371;28;20025;-68
2021/12/18 01:36:27;;;;;;;5.65;3.05;;;7.90;99.90;;;;;;5046020;28;20036;-70
2021/12/18 01:38:53;;;;;;;5.32;3.40;;;7.90;99.90;;;;;;5041268;28;20104;-69
2021/12/18 01:41:19;;;;;;;7.70;4.05;;;7.90;99.90;;;;;;5039113;28;20034;-69
2021/12/18 01:52:05;;;;;;;11.63;6.40;;;8.00;99.90;;;;;;5018747;28;20037;-69
2021/12/18 01:54:31;;;;;;;18.30;6.35;;;8.00;99.90;;;;;;5038500;28;20021;-70
2021/12/18 01:56:57;;;;;;;11.15;5.22;;;8.00;99.90;;;;;;5038525;28;20079;-70
2021/12/18 01:59:46;;;;;;;11.57;5.35;;;8.00;99.90;;;;;;5038239;28;20049;-70
2021/12/18 02:02:12;;;;;;;13.32;6.28;;;8.00;99.90;;;;;;5038613;28;20328;-70
2021/12/18 02:04:38;;;;;;;11.23;5.07;;;8.00;99.90;;;;;;5043410;28;20077;-70
2021/12/18 02:07:04;;;;;;;7.03;4.20;;;8.00;99.90;;;;;;5040183;28;20439;-70
2021/12/18 02:12:17;;;;;;;9.48;5.22;;;8.00;99.90;;;;;;5037711;28;20258;-70
2021/12/18 02:20:26;;;;;;;14.90;5.47;;;8.00;99.90;;;;;;5040699;28;20542;-70
2021/12/18 02:22:55;;;;;;;13.27;5.70;;;8.00;99.90;;;;;;5038819;28;20035;-70
2021/12/18 02:25:23;;;;;;;9.98;4.53;;;8.00;99.90;;;;;;5037734;28;20403;-70
2021/12/18 02:27:51;;;;;;;13.05;5.55;;;8.00;99.90;;;;;;5037202;28;20026;-70
2021/12/18 02:30:21;;;;;;;11.40;5.15;;;8.00;99.90;;;;;;5039984;28;20112;-70
2021/12/18 02:32:47;;;;;;;11.60;5.93;;;8.00;99.90;;;;;;5039657;28;20022;-70
2021/12/18 02:35:30;;;;;;;13.43;6.55;;;8.00;99.90;;;;;;5036316;28;20021;-70
2021/12/18 02:38:29;;;;;;;11.75;5.20;;;8.00;99.90;;;;;;5036532;28;20473;-70
2021/12/18 02:41:41;;;;;;;14.10;6.35;;;8.00;99.90;;;;;;5036286;28;20030;-70
2021/12/18 02:43:45;;;;;;;11.25;5.90;;;8.00;99.90;;;;;;5032820;28;20255;-70
2021/12/18 02:46:17;;;;;;;17.38;7.15;;;8.00;99.90;;;;;;5036070;28;20053;-69
2021/12/18 02:48:42;;;;;;;12.13;5.72;;;8.00;99.90;;;;;;5035839;28;20407;-68
2021/12/18 02:51:11;;;;;;;12.70;6.35;;;8.00;99.90;;;;;;5036252;28;20050;-70
2021/12/18 02:53:41;;;;;;;13.77;7.18;;;8.00;99.90;;;;;;5038232;28;20049;-69
2021/12/18 02:56:09;;;;;;;12.10;6.55;;;8.00;99.90;;;;;;5036822;28;20037;-69
2021/12/18 02:58:39;;;;;;;16.55;7.05;;;8.00;99.90;;;;;;5033420;28;20025;-69
2021/12/18 03:01:07;;;;;;;13.13;5.78;;;8.00;99.90;;;;;;5035374;28;20429;-69
2021/12/18 03:03:36;;;;;;;15.15;7.25;;;8.00;99.90;;;;;;5036424;28;20376;-70
2021/12/18 03:06:50;;;;;;;15.70;6.65;;;8.00;99.90;;;;;;5036287;28;20467;-70
2021/12/18 03:09:15;;;;;;;15.85;5.68;;;8.00;99.90;;;;;;5029358;28;20439;-69
2021/12/18 03:25:28;;;;;;;10.85;3.85;;;7.90;99.90;;;;;;5039799;28;20091;-69
2021/12/18 03:27:55;;;;;;;10.30;4.28;;;7.90;99.90;;;;;;5036195;28;20026;-70
2021/12/18 03:30:21;;;;;;;11.48;4.03;;;7.90;99.90;;;;;;5035178;28;20029;-69
2021/12/18 03:32:48;;;;;;;13.20;5.05;;;7.90;99.90;;;;;;5034821;28;20022;-69
2021/12/18 03:35:15;;;;;;;16.08;5.68;;;7.90;99.90;;;;;;5035949;28;20071;-70
2021/12/18 03:37:41;;;;;;;13.15;4.70;;;7.90;99.90;;;;;;5035281;28;20034;-69
2021/12/18 03:40:10;;;;;;;13.38;4.93;;;7.90;99.90;;;;;;5035061;28;20026;-69
2021/12/18 03:42:36;;;;;;;14.25;4.80;;;7.90;99.90;;;;;;5035601;28;20014;-70
2021/12/18 03:45:03;;;;;;;14.77;4.88;;;7.90;99.90;;;;;;5036987;28;20041;-69
2021/12/18 03:47:29;;;;;;;10.25;4.43;;;7.90;99.90;;;;;;5041518;28;20022;-69
2021/12/18 03:49:54;;;;;;;11.57;4.00;;;7.80;99.90;;;;;;5040357;28;20048;-69
2021/12/18 03:52:20;;;;;;;8.98;4.22;;;7.80;99.90;;;;;;5037566;28;20032;-70
2021/12/18 03:54:46;;;;;;;11.95;4.63;;;7.90;99.90;;;;;;5039403;28;20038;-70
2021/12/18 03:57:11;;;;;;;10.68;3.47;;;7.90;99.90;;;;;;5041180;28;20045;-70
2021/12/18 03:59:37;;;;;;;8.25;3.15;;;7.90;99.90;;;;;;5038691;28;20037;-69
2021/12/18 04:02:02;;;;;;;11.25;3.80;;;7.90;99.90;;;;;;5034920;28;20104;-69
2021/12/18 04:04:28;;;;;;;9.45;4.03;;;8.00;99.90;;;;;;5034258;28;20033;-69
2021/12/18 04:06:54;;;;;;;11.23;4.35;;;7.90;99.90;;;;;;5034297;28;20406;-69
2021/12/18 04:09:20;;;;;;;11.70;4.22;;;7.90;99.90;;;;;;5037601;28;20044;-70
2021/12/18 04:11:46;;;;;;;10.35;3.67;;;7.90;99.90;;;;;;5034402;28;20028;-69
2021/12/18 04:14:13;;;;;;;12.63;4.97;;;7.90;99.90;;;;;;5034503;28;20037;-70
2021/12/18 04:16:38;;;;;;;8.38;4.03;;;7.90;99.90;;;;;;5034317;28;20552;-68
2021/12/18 04:19:05;;;;;;;12.27;4.43;;;7.90;99.90;;;;;;5035800;28;20109;-70
2021/12/18 04:21:32;;;;;;;14.05;4.57;;;7.90;99.90;;;;;;5034897;28;20029;-69
2021/12/18 04:23:58;;;;;;;12.52;4.80;;;7.90;99.90;;;;;;5035689;28;20216;-69
2021/12/18 04:26:24;;;;;;;9.10;4.32;;;7.90;99.90;;;;;;5034848;28;20057;-70
2021/12/18 04:28:50;;;;;;;12.38;4.70;;;7.90;99.90;;;;;;5035165;28;20025;-70
2021/12/18 04:31:16;;;;;;;11.15;4.28;;;7.80;99.90;;;;;;5035250;28;20514;-69
2021/12/18 04:33:42;;;;;;;15.75;5.18;;;7.80;99.90;;;;;;5035236;28;20039;-69
2021/12/18 04:36:07;;;;;;;17.50;5.45;;;7.80;99.90;;;;;;5034570;28;20025;-69
2021/12/18 04:38:33;;;;;;;15.35;6.38;;;7.70;99.90;;;;;;5032920;28;20542;-70
2021/12/18 04:40:59;;;;;;;15.43;6.63;;;7.80;99.90;;;;;;5038171;28;20068;-69
2021/12/18 04:43:25;;;;;;;15.20;5.97;;;7.70;99.90;;;;;;5040247;28;20112;-70
2021/12/18 04:45:50;;;;;;;13.65;5.50;;;7.70;99.90;;;;;;5035267;28;20036;-69
2021/12/18 04:48:16;;;;;;;14.27;5.97;;;7.70;99.90;;;;;;5037381;28;20056;-70
2021/12/18 04:50:42;;;;;;;13.30;5.13;;;7.70;99.90;;;;;;5037373;28;20048;-69
2021/12/18 04:53:07;;;;;;;11.75;5.68;;;7.70;99.90;;;;;;5035889;28;20033;-69
2021/12/18 04:55:33;;;;;;;14.23;5.25;;;7.70;99.90;;;;;;5035865;28;20036;-69
2021/12/18 04:57:59;;;;;;;11.18;4.97;;;7.70;99.90;;;;;;5035822;28;20398;-71
2021/12/18 05:00:36;;;;;;;12.88;5.57;;;7.70;99.90;;;;;;5036549;28;20026;-70
2021/12/18 05:03:05;;;;;;;13.52;4.70;;;7.70;99.90;;;;;;5037086;28;20029;-70
2021/12/18 05:05:31;;;;;;;11.32;3.95;;;7.70;99.90;;;;;;5037122;28;20434;-71
2021/12/18 05:07:56;;;;;;;9.63;4.53;;;7.70;99.90;;;;;;5038007;28;20018;-69
2021/12/18 05:10:22;;;;;;;8.38;4.35;;;7.70;99.90;;;;;;5035710;28;20076;-69
2021/12/18 05:12:47;;;;;;;10.05;4.40;;;7.70;99.90;;;;;;5035126;28;20164;-69
2021/12/18 05:15:13;;;;;;;7.85;4.00;;;7.70;99.90;;;;;;5033476;28;20026;-70
2021/12/18 05:17:39;;;;;;;9.63;3.92;;;7.70;99.90;;;;;;5034928;28;20030;-69
2021/12/18 05:20:05;;;;;;;7.70;4.07;;;7.70;99.90;;;;;;5035491;28;20029;-69
2021/12/18 05:22:31;;;;;;;9.13;4.05;;;7.70;99.90;;;;;;5034962;28;20029;-70
2021/12/18 05:24:56;;;;;;;8.93;4.53;;;7.70;99.90;;;;;;5035720;28;20029;-69
2021/12/18 05:27:22;;;;;;;11.10;4.30;;;7.60;99.90;;;;;;5035590;28;20018;-69
2021/12/18 05:29:47;;;;;;;12.40;4.53;;;7.70;99.90;;;;;;5035528;28;20073;-69
2021/12/18 05:32:13;;;;;;;9.77;3.85;;;7.70;99.90;;;;;;5034864;28;20026;-69
2021/12/18 05:34:39;;;;;;;9.10;3.83;;;7.70;99.90;;;;;;5035239;28;20038;-69
2021/12/18 05:39:38;;;;;;;14.75;4.47;;;7.60;99.90;;;;;;5042193;28;20050;-70
2021/12/18 05:42:03;;;;;;;9.32;4.05;;;7.60;99.90;;;;;;5041123;28;20078;-70
2021/12/18 05:44:29;;;;;;;9.45;4.72;;;7.70;99.90;;;;;;5038841;28;20030;-70
2021/12/18 05:46:55;;;;;;;10.98;4.85;;;7.70;99.90;;;;;;5038733;28;20056;-72
2021/12/18 05:49:21;;;;;;;12.80;5.55;;;7.70;99.90;;;;;;5039781;28;20067;-70
2021/12/18 05:51:47;;;;;;;10.57;5.03;;;7.60;99.90;;;;;;5040499;28;20026;-70
2021/12/18 05:54:13;;;;;;;15.45;5.05;;;7.60;99.90;;;;;;5040619;28;20033;-70
2021/12/18 05:56:40;;;;;;;15.70;4.65;;;7.60;99.90;;;;;;5038227;28;20415;-69
2021/12/18 05:59:06;;;;;;;17.42;5.20;;;7.60;99.90;;;;;;5037939;28;20033;-70
2021/12/18 06:01:32;;;;;;;14.82;5.55;;;7.70;99.90;;;;;;5046775;28;20083;-70
2021/12/18 06:03:58;;;;;;;13.88;4.82;;;7.60;99.90;;;;;;5041886;28;20033;-70
2021/12/18 06:06:25;;;;;;;12.57;5.10;;;7.70;99.90;;;;;;5039556;28;20021;-71
2021/12/18 06:08:51;;;;;;;16.20;4.75;;;7.70;99.90;;;;;;5042288;28;20034;-70
2021/12/18 06:11:19;;;;;;;19.55;5.00;;;7.60;99.90;;;;;;5043443;28;20025;-71
2021/12/18 06:13:47;;;;;;;15.23;5.30;;;7.60;99.90;;;;;;5043097;28;20430;-71
2021/12/18 06:16:13;;;;;;;14.05;4.75;;;7.70;99.90;;;;;;5043674;28;20526;-68
2021/12/18 06:18:44;;;;;;;13.68;4.75;;;7.70;99.90;;;;;;5039098;28;20120;-70
2021/12/18 06:21:10;;;;;;;17.67;5.73;;;7.70;99.90;;;;;;5038327;28;20021;-69
2021/12/18 06:23:36;;;;;;;9.60;4.60;;;7.60;99.90;;;;;;5038007;28;20290;-70
2021/12/18 06:26:02;;;;;;;13.93;4.72;;;7.60;99.90;;;;;;5037720;28;20053;-70
2021/12/18 06:28:28;;;;;;;13.50;4.60;;;7.60;99.90;;;;;;5037942;28;20025;-70
2021/12/18 06:30:53;;;;;;;13.60;5.03;;;7.60;99.90;;;;;;5038585;28;20044;-69
2021/12/18 06:33:19;;;;;;;17.08;6.00;;;7.60;99.90;;;;;;5038667;28;20439;-70
2021/12/18 06:35:45;;;;;;;14.32;4.80;;;7.60;99.90;;;;;;5037989;28;20033;-70
2021/12/18 06:38:11;;;;;;;11.10;4.93;;;7.70;99.90;;;;;;5037683;28;20047;-70
2021/12/18 06:40:37;;;;;;;13.38;5.65;;;7.70;99.90;;;;;;5036996;28;20179;-70
2021/12/18 06:43:02;;;;;;;15.02;4.90;;;7.60;99.90;;;;;;5037334;28;20025;-70
2021/12/18 06:45:28;;;;;;;12.65;4.75;;;7.70;99.90;;;;;;5037323;28;20029;-70
2021/12/18 06:47:54;;;;;;;15.48;4.88;;;7.70;99.90;;;;;;5040719;28;20159;-70
2021/12/18 06:50:20;;;;;;;16.40;4.43;;;7.70;99.90;;;;;;5037188;28;20171;-69
2021/12/18 06:52:46;;;;;;;17.13;5.25;;;7.60;99.90;;;;;;5038653;28;20578;-70
2021/12/18 06:55:11;;;;;;;19.83;5.38;;;7.60;99.90;;;;;;5040050;28;20056;-70
2021/12/18 06:57:37;;;;;;;19.60;5.25;;;7.60;99.90;;;;;;5037459;28;20033;-68
2021/12/18 07:00:06;;;;;;;15.40;5.15;;;7.60;99.90;;;;;;5037267;28;20173;-70
2021/12/18 07:02:31;;;;;;;12.80;5.50;;;7.70;99.90;;;;;;5036891;28;20029;-69
2021/12/18 07:04:57;;;;;;;16.90;5.65;;;7.70;99.90;;;;;;5037171;28;20022;-70
2021/12/18 07:07:22;;;;;;;15.05;6.30;;;7.60;99.90;;;;;;5036994;28;20041;-69
2021/12/18 07:09:48;;;;;;;16.20;5.05;;;7.60;99.90;;;;;;5037499;28;20040;-70
2021/12/18 07:12:13;;;;;;;19.73;5.95;;;7.70;99.90;;;;;;5038136;28;20033;-70
2021/12/18 07:14:39;;;;;;;17.17;6.22;;;7.70;99.90;;;;;;5038479;28;20124;-70
2021/12/18 07:17:05;;;;;;;14.23;5.57;;;7.70;99.90;;;;;;5035438;28;20029;-70
2021/12/18 07:19:31;;;;;;;22.85;6.22;;;7.70;99.90;;;;;;5038500;28;20025;-67
2021/12/18 07:21:56;;;;;;;18.30;6.32;;;7.70;99.90;;;;;;5041322;28;20068;-69
2021/12/18 07:24:22;;;;;;;16.77;6.03;;;7.80;99.90;;;;;;5037913;28;20523;-69
2021/12/18 07:26:48;;;;;;;15.18;5.47;;;7.70;99.90;;;;;;5037161;28;20036;-69
2021/12/18 07:29:13;;;;;;;19.30;6.00;;;7.80;99.90;;;;;;5036759;28;20033;-69
2021/12/18 07:31:39;;;;;;;14.65;5.25;;;7.80;99.90;;;;;;5036950;28;20043;-69
2021/12/18 07:34:04;;;;;;;19.33;6.97;;;7.80;99.90;;;;;;5037152;28;20030;-69
2021/12/18 07:36:30;;;;;;;16.50;5.93;;;7.80;99.90;;;;;;5035572;28;20029;-68
2021/12/18 07:38:56;;;;;;;15.30;6.05;;;7.80;99.90;;;;;;5036849;28;20021;-68
2021/12/18 07:41:22;;;;;;;16.35;7.10;;;7.80;99.90;;;;;;5036141;28;20028;-71
2021/12/18 07:43:48;;;;;;;17.75;6.70;;;7.80;99.90;;;;;;5036417;28;20053;-68
2021/12/18 07:46:13;;;;;;;18.70;6.78;;;7.80;99.90;;;;;;5036193;28;20103;-69
2021/12/18 07:48:39;;;;;;;15.57;5.82;;;7.80;99.90;;;;;;5036501;28;20429;-70
2021/12/18 07:51:04;;;;;;;15.50;6.78;;;7.80;99.90;;;;;;5037177;28;20036;-69
2021/12/18 07:53:30;;;;;;;15.52;6.72;;;7.80;99.90;;;;;;5036822;28;20025;-69
2021/12/18 07:55:56;;;;;;;15.68;6.65;;;7.80;99.90;;;;;;5037474;28;20120;-71
2021/12/18 07:58:21;;;;;;;20.55;7.28;;;7.80;99.90;;;;;;5036813;28;20025;-70
2021/12/18 08:00:47;;;;;;;19.15;7.70;;;7.90;99.90;;;;;;5035535;28;20108;-70
2021/12/18 08:03:13;;;;;;;17.73;7.20;;;7.90;99.90;;;;;;5035601;28;20032;-70
2021/12/18 08:05:38;;;;;;;22.77;7.32;;;7.90;99.90;;;;;;5036161;28;20034;-70
2021/12/18 08:08:04;;;;;;;19.48;7.90;;;7.90;99.90;;;;;;5035936;28;20030;-70
2021/12/18 08:10:30;;;;;;;20.58;8.00;;;7.90;99.90;;;;;;5035871;28;20035;-69
2021/12/18 08:12:55;;;;;;;23.25;8.35;;;7.90;99.90;;;;;;5035396;28;20095;-70
2021/12/18 08:15:21;;;;;;;18.33;7.22;;;7.90;99.90;;;;;;5037267;28;20479;-70
2021/12/18 08:17:46;;;;;;;20.63;8.20;;;7.80;99.90;;;;;;5038682;28;20076;-70
2021/12/18 08:20:12;;;;;;;21.38;7.38;;;7.80;99.90;;;;;;5036173;28;20026;-71
2021/12/18 08:22:38;;;;;;;16.33;7.03;;;7.80;99.90;;;;;;5042114;28;20061;-70
2021/12/18 08:25:05;;;;;;;27.00;8.05;;;7.80;99.90;;;;;;5041926;28;20103;-70
2021/12/18 08:27:30;;;;;;;17.73;7.22;;;7.90;99.90;;;;;;5041076;28;20030;-71
2021/12/18 08:29:56;;;;;;;22.58;7.40;;;8.00;99.90;;;;;;5039012;28;20112;-70
2021/12/18 08:32:22;;;;;;;22.52;8.10;;;8.00;99.90;;;;;;5033907;28;20451;-70
2021/12/18 08:34:48;;;;;;;24.13;8.23;;;8.00;99.90;;;;;;5035999;28;20021;-70
2021/12/18 08:37:13;;;;;;;18.52;6.85;;;8.00;99.90;;;;;;5035939;28;20030;-69
2021/12/18 08:39:39;;;;;;;23.77;8.13;;;8.00;99.90;;;;;;5038616;28;20474;-70
2021/12/18 08:42:06;;;;;;;25.48;8.73;;;8.00;99.90;;;;;;5036747;28;20021;-70
2021/12/18 08:44:35;;;;;;;27.88;8.90;;;7.90;99.90;;;;;;5035095;28;20028;-71
2021/12/18 08:47:01;;;;;;;24.13;9.25;;;8.00;99.90;;;;;;5033856;28;20022;-70
2021/12/18 08:49:27;;;;;;;24.73;8.85;;;8.00;99.90;;;;;;5035230;28;20022;-71
2021/12/18 08:51:54;;;;;;;23.45;9.15;;;8.00;99.90;;;;;;5035778;28;20029;-70
2021/12/18 08:54:21;;;;;;;23.95;8.38;;;8.00;99.90;;;;;;5034884;28;20079;-70
2021/12/18 08:56:46;;;;;;;23.15;7.88;;;8.00;99.90;;;;;;5035426;28;20041;-71
2021/12/18 08:59:12;;;;;;;18.98;7.05;;;8.00;99.90;;;;;;5037365;28;20065;-70
2021/12/18 09:01:38;;;;;;;16.33;7.93;;;8.00;99.90;;;;;;5036427;28;20040;-69
2021/12/18 09:04:04;;;;;;;14.40;6.95;;;8.10;99.90;;;;;;5035553;28;20368;-70
2021/12/18 09:06:29;;;;;;;18.02;7.50;;;8.10;99.90;;;;;;5035070;28;20108;-71
2021/12/18 09:08:55;;;;;;;25.23;8.52;;;8.10;99.90;;;;;;5035957;28;20029;-70
2021/12/18 09:11:21;;;;;;;18.20;8.32;;;8.10;99.90;;;;;;5037428;28;20056;-70
2021/12/18 09:13:47;;;;;;;23.83;9.50;;;8.10;99.90;;;;;;5038170;28;20029;-70
2021/12/18 09:16:13;;;;;;;25.02;9.45;;;8.20;99.90;;;;;;5039016;28;20084;-70
2021/12/18 09:18:38;;;;;;;21.98;9.40;;;8.10;99.90;;;;;;5040134;28;20443;-70
2021/12/18 09:21:05;;;;;;;26.38;10.48;;;8.10;99.90;;;;;;5045770;28;20116;-71
2021/12/18 09:23:30;;;;;;;25.70;10.32;;;8.20;99.90;;;;;;5048157;28;20071;-69
2021/12/18 09:25:56;;;;;;;27.85;10.75;;;8.20;99.90;;;;;;5038529;28;20154;-70
2021/12/18 09:28:22;;;;;;;27.35;9.82;;;8.20;99.90;;;;;;5037881;28;20040;-69
2021/12/18 09:30:47;;;;;;;26.70;11.60;;;8.30;99.90;;;;;;5038041;28;20045;-70
2021/12/18 09:33:17;;;;;;;30.85;12.73;;;8.20;99.90;;;;;;5038188;28;20116;-70
2021/12/18 09:35:43;;;;;;;25.77;12.65;;;8.30;99.90;;;;;;5038132;28;20026;-70
2021/12/18 09:38:09;;;;;;;29.00;13.10;;;8.30;99.90;;;;;;5038321;28;20390;-69
2021/12/18 09:40:35;;;;;;;24.30;11.20;;;8.30;99.90;;;;;;5037492;28;20113;-70
2021/12/18 09:43:01;;;;;;;25.13;11.98;;;8.40;99.90;;;;;;5037792;28;20029;-70
2021/12/18 09:45:27;;;;;;;21.10;9.10;;;8.40;99.90;;;;;;5038182;28;20081;-69
2021/12/18 09:47:53;;;;;;;20.92;9.40;;;8.40;99.90;;;;;;5037934;28;20032;-70
2021/12/18 09:50:22;;;;;;;19.98;8.25;;;8.40;99.90;;;;;;5038077;28;20032;-70
2021/12/18 09:52:47;;;;;;;15.45;7.65;;;8.50;99.90;;;;;;5038307;28;20052;-71
2021/12/18 09:55:15;;;;;;;17.65;8.13;;;8.50;99.90;;;;;;5036992;28;20029;-70
2021/12/18 09:57:41;;;;;;;12.65;7.38;;;8.50;99.90;;;;;;5040679;28;20025;-70
2021/12/18 10:00:13;;;;;;;11.80;7.15;;;8.60;99.90;;;;;;5040781;28;20033;-67
2021/12/18 10:02:39;;;;;;;7.97;5.25;;;8.60;99.90;;;;;;5037786;28;20037;-67
2021/12/18 10:05:05;;;;;;;7.60;4.32;;;8.60;99.90;;;;;;5037737;28;20048;-70
2021/12/18 10:07:31;;;;;;;6.28;3.70;;;8.60;99.90;;;;;;5037462;28;20029;-69
2021/12/18 10:10:00;;;;;;;8.55;2.78;;;8.60;99.90;;;;;;5037316;28;20108;-69
2021/12/18 10:12:31;;;;;;;3.83;2.83;;;8.70;99.90;;;;;;5037684;28;20025;-69
2021/12/18 10:15:00;;;;;;;5.10;2.80;;;8.70;99.90;;;;;;5037799;28;20390;-70
2021/12/18 10:17:39;;;;;;;4.30;2.70;;;8.80;99.90;;;;;;5037339;28;20037;-69
2021/12/18 10:20:10;;;;;;;4.35;2.30;;;8.80;99.90;;;;;;5037498;28;20029;-69
2021/12/18 10:22:43;;;;;;;4.40;2.90;;;8.80;99.90;;;;;;5037484;28;20100;-70
2021/12/18 10:25:09;;;;;;;5.20;2.75;;;8.90;99.90;;;;;;5036219;28;20025;-70
2021/12/18 10:27:37;;;;;;;5.45;3.08;;;8.90;99.90;;;;;;5037726;28;20388;-69
2021/12/18 10:30:20;;;;;;;7.72;3.08;;;8.90;99.90;;;;;;5039173;28;20459;-70
2021/12/18 10:33:05;;;;;;;6.18;2.97;;;8.90;99.90;;;;;;5041024;28;20032;-71
2021/12/18 10:35:58;;;;;;;3.25;2.47;;;8.90;99.90;;;;;;5041544;28;20551;-70
2021/12/18 10:38:48;;;;;;;6.13;2.95;;;8.90;99.90;;;;;;5041594;28;20049;-69
2021/12/18 10:41:34;;;;;;;4.30;3.40;;;8.90;99.90;;;;;;5042015;28;20025;-70
2021/12/18 10:44:03;;;;;;;4.88;3.35;;;8.90;99.90;;;;;;5040383;28;20044;-69
2021/12/18 10:46:30;;;;;;;4.53;3.33;;;8.90;99.90;;;;;;5035799;28;20029;-70
2021/12/18 10:48:57;;;;;;;7.07;3.88;;;8.90;99.90;;;;;;5037278;28;20018;-70
2021/12/18 10:51:24;;;;;;;7.32;4.03;;;8.80;99.90;;;;;;5036407;28;20124;-70
2021/12/18 10:53:50;;;;;;;9.13;4.43;;;8.80;99.90;;;;;;5036843;28;20037;-71
2021/12/18 10:56:16;;;;;;;8.60;4.68;;;8.80;99.90;;;;;;5037832;28;20024;-70
2021/12/18 10:58:42;;;;;;;5.57;3.42;;;8.80;99.90;;;;;;5037565;28;20475;-71
2021/12/18 11:01:14;;;;;;;7.70;2.38;;;8.80;99.90;;;;;;5034991;28;20029;-70
2021/12/18 11:03:57;;;;;;;8.60;2.47;;;8.70;99.90;;;;;;5038060;28;20085;-70
2021/12/18 11:06:28;;;;;;;8.60;2.88;;;8.70;99.90;;;;;;5040691;28;20049;-68
2021/12/18 11:09:04;;;;;;;8.68;2.80;;;8.70;99.90;;;;;;5037873;28;20025;-70
2021/12/18 11:14:09;;;;;;;8.73;3.20;;;8.70;99.90;;;;;;5036916;28;20030;-71
2021/12/18 11:16:36;;;;;;;14.00;3.30;;;8.70;99.90;;;;;;5037106;28;20025;-69
2021/12/18 11:19:04;;;;;;;15.13;3.83;;;8.70;99.90;;;;;;5039375;28;20025;-70
2021/12/18 11:21:30;;;;;;;9.95;3.75;;;8.70;99.90;;;;;;5036934;28;20030;-70
2021/12/18 11:24:05;;;;;;;16.75;4.00;;;8.80;99.90;;;;;;5037402;28;20018;-69
2021/12/18 11:26:45;;;;;;;14.13;4.35;;;8.80;99.90;;;;;;5039547;28;20021;-74
2021/12/18 11:29:28;;;;;;;16.48;4.07;;;8.80;99.90;;;;;;5038853;28;20017;-69
2021/12/18 11:31:54;;;;;;;12.77;3.65;;;8.80;99.90;;;;;;5038877;28;20028;-69
2021/12/18 11:34:20;;;;;;;16.42;5.28;;;8.90;99.90;;;;;;5036047;28;20021;-70
2021/12/18 11:36:49;;;;;;;11.95;4.35;;;8.90;99.90;;;;;;5036617;28;20033;-70
2021/12/18 11:39:18;;;;;;;11.88;4.05;;;9.00;99.90;;;;;;5037705;28;20026;-69
2021/12/18 11:41:48;;;;;;;14.50;4.22;;;9.10;99.90;;;;;;5035593;28;20033;-70
2021/12/18 11:44:38;;;;;;;17.85;3.67;;;9.20;99.90;;;;;;5036905;28;20037;-70
2021/12/18 11:47:36;;;;;;;16.10;3.58;;;9.30;99.90;;;;;;5038610;28;20090;-69
2021/12/18 11:50:20;;;;;;;13.30;3.20;;;9.30;99.90;;;;;;5039078;28;20045;-70
2021/12/18 11:53:13;;;;;;;24.42;3.83;;;9.30;99.90;;;;;;5035932;28;20027;-70
2021/12/18 11:55:51;;;;;;;14.60;4.75;;;9.30;99.90;;;;;;5032534;28;20398;-70
2021/12/18 11:58:21;;;;;;;16.70;5.10;;;9.40;99.90;;;;;;5035562;28;20036;-70
2021/12/18 12:00:59;;;;;;;13.25;4.13;;;9.50;99.90;;;;;;5035358;28;20455;-70
2021/12/18 12:03:37;;;;;;;20.15;4.97;;;9.50;99.90;;;;;;5035250;28;20131;-70
2021/12/18 12:06:36;;;;;;;17.25;3.97;;;9.60;99.90;;;;;;5035465;28;20032;-70
2021/12/18 12:11:54;;;;;;;15.50;4.43;;;9.70;99.90;;;;;;5037928;28;20044;-70
2021/12/18 12:14:21;;;;;;;20.35;4.85;;;9.80;99.90;;;;;;5035444;28;20017;-70
2021/12/18 12:16:47;;;;;;;16.08;4.88;;;9.70;99.90;;;;;;5035250;28;20013;-69
2021/12/18 12:19:21;;;;;;;27.05;5.35;;;9.70;99.90;;;;;;5035297;28;20029;-69
2021/12/18 12:21:49;;;;;;;13.40;4.82;;;9.70;99.90;;;;;;5038190;28;20033;-69
2021/12/18 12:24:18;;;;;;;22.20;4.97;;;9.70;99.90;;;;;;5037647;28;20052;-70
2021/12/18 12:26:44;;;;;;;18.23;5.25;;;9.70;99.90;;;;;;5035229;28;20044;-70
2021/12/18 12:29:13;;;;;;;15.68;4.22;;;9.70;99.90;;;;;;5036982;28;20518;-70
2021/12/18 12:31:55;;;;;;;19.17;5.60;;;9.70;99.90;;;;;;5038349;28;20049;-69
2021/12/18 12:34:30;;;;;;;19.35;4.93;;;9.70;99.90;;;;;;5037041;28;20029;-69
2021/12/18 12:36:59;;;;;;;15.80;4.55;;;9.80;99.90;;;;;;5038404;28;20025;-69
2021/12/18 12:39:46;;;;;;;20.13;5.70;;;9.80;99.90;;;;;;5037843;28;20037;-70
2021/12/18 12:42:11;;;;;;;15.10;4.70;;;9.90;99.90;;;;;;5035253;28;20179;-69
2021/12/18 12:44:48;;;;;;;16.38;4.95;;;9.90;99.90;;;;;;5035139;28;20049;-70
2021/12/18 12:47:19;;;;;;;11.30;4.63;;;9.90;99.90;;;;;;5035204;28;20096;-72
2021/12/18 12:49:47;;;;;;;18.83;5.57;;;9.90;99.90;;;;;;5036218;28;20025;-70
2021/12/18 12:52:15;;;;;;;14.25;5.35;;;9.80;99.90;;;;;;5040319;28;20064;-70
2021/12/18 12:55:12;;;;;;;15.75;5.15;;;9.90;99.90;;;;;;5043818;28;20080;-70
2021/12/18 12:57:44;;;;;;;18.38;5.47;;;9.90;99.90;;;;;;5039642;28;20041;-69
2021/12/18 13:00:09;;;;;;;20.85;5.28;;;9.90;99.90;;;;;;5035126;28;20113;-69
2021/12/18 13:02:48;;;;;;;20.23;5.63;;;9.90;99.90;;;;;;5035298;28;20053;-69
2021/12/18 13:05:14;;;;;;;20.17;5.63;;;9.90;99.90;;;;;;5036787;28;20048;-69
2021/12/18 13:07:56;;;;;;;19.42;5.68;;;9.90;99.90;;;;;;5033557;28;20026;-69
2021/12/18 13:10:34;;;;;;;23.25;5.45;;;9.90;99.90;;;;;;5037291;28;20478;-70
2021/12/18 13:13:09;;;;;;;14.40;6.00;;;10.00;99.90;;;;;;5034994;28;20033;-68
2021/12/18 13:16:11;;;;;;;18.67;5.78;;;9.90;99.90;;;;;;5034436;28;20025;-69
2021/12/18 13:18:49;;;;;;;17.10;5.53;;;10.00;99.90;;;;;;5034896;28;20055;-69
2021/12/18 13:21:14;;;;;;;21.00;6.10;;;10.00;99.90;;;;;;5034251;28;20482;-68
2021/12/18 13:23:56;;;;;;;21.45;5.70;;;10.00;99.90;;;;;;5033157;28;20025;-71
2021/12/18 13:26:28;;;;;;;25.45;5.55;;;9.90;99.90;;;;;;5033877;28;20021;-70
2021/12/18 13:29:13;;;;;;;26.05;6.20;;;9.90;99.90;;;;;;5035278;28;20040;-69
2021/12/18 13:31:54;;;;;;;22.60;5.97;;;10.00;99.90;;;;;;5035438;28;20114;-69
2021/12/18 13:34:32;;;;;;;20.83;6.10;;;9.90;99.90;;;;;;5034745;28;20026;-70
2021/12/18 13:37:03;;;;;;;22.63;6.47;;;10.00;99.90;;;;;;5034484;28;20026;-70
2021/12/18 13:39:33;;;;;;;27.23;8.00;;;10.00;99.90;;;;;;5035821;28;20026;-70
2021/12/18 13:42:13;;;;;;;18.27;5.68;;;10.00;99.90;;;;;;5035661;28;20034;-70
2021/12/18 13:44:43;;;;;;;20.35;5.60;;;10.00;99.90;;;;;;5034957;28;20022;-70
2021/12/18 13:47:19;;;;;;;19.52;6.72;;;10.00;99.90;;;;;;5034514;28;20100;-69